sensor_id;sensor_type;location;lat;lon;timestamp;P1;P2;P0
21358;PMS7003;13506;50.852;20.632;2023-05-07T00:01:51;4.40;4.40;1.00
21358;PMS7003;13506;50.852;20.632;2023-05-07T00:04:20;2.00;2.00;0.00
21358;PMS7003;13506;50.852;20.632;2023-05-07T00:06:48;2.00;2.00;0.80
21358;PMS7003;13506;50.852;20.632;2023-05-07T00:09:16;2.40;2.40;0.60
21358;PMS7003;13506;50.852;20.632;2023-05-07T00:11:44;2.00;2.00;0.00
21358;PMS7003;13506;50.852;20.632;2023-05-07T00:14:14;1.80;1.80;0.00
21358;PMS7003;13506;50.852;20.632;2023-05-07T00:16:42;2.40;2.40;1.00
21358;PMS7003;13506;50.852;20.632;2023-05-07T00:19:10;2.80;1.80;0.00
21358;PMS7003;13506;50.852;20.632;2023-05-07T00:21:38;4.00;4.00;1.00
21358;PMS7003;13506;50.852;20.632;2023-05-07T00:24:06;2.00;2.00;0.00
21358;PMS7003;13506;50.852;20.632;2023-05-07T00:26:34;3.20;2.00;0.00
21358;PMS7003;13506;50.852;20.632;2023-05-07T00:29:02;2.00;1.80;0.00
21358;PMS7003;13506;50.852;20.632;2023-05-07T00:31:32;2.00;2.00;0.60
21358;PMS7003;13506;50.852;20.632;2023-05-07T00:33:59;4.00;2.00;0.00
21358;PMS7003;13506;50.852;20.632;2023-05-07T00:36:28;2.00;2.00;0.00
21358;PMS7003;13506;50.852;20.632;2023-05-07T00:38:56;2.40;2.40;1.00
21358;PMS7003;13506;50.852;20.632;2023-05-07T00:41:26;2.00;2.00;0.00
21358;PMS7003;13506;50.852;20.632;2023-05-07T00:43:54;2.00;2.00;0.00
21358;PMS7003;13506;50.852;20.632;2023-05-07T00:46:22;2.00;2.00;0.00
21358;PMS7003;13506;50.852;20.632;2023-05-07T00:48:52;1.60;1.00;0.00
21358;PMS7003;13506;50.852;20.632;2023-05-07T00:51:21;1.80;1.80;0.00
21358;PMS7003;13506;50.852;20.632;2023-05-07T00:53:50;2.00;2.00;0.00
21358;PMS7003;13506;50.852;20.632;2023-05-07T00:56:18;3.20;3.20;0.00
21358;PMS7003;13506;50.852;20.632;2023-05-07T00:58:47;1.40;1.40;0.00
21358;PMS7003;13506;50.852;20.632;2023-05-07T01:01:15;2.00;2.00;0.00
21358;PMS7003;13506;50.852;20.632;2023-05-07T01:03:43;3.20;3.20;0.20
21358;PMS7003;13506;50.852;20.632;2023-05-07T01:06:13;4.20;4.00;0.00
21358;PMS7003;13506;50.852;20.632;2023-05-07T01:08:42;4.60;2.00;0.00
21358;PMS7003;13506;50.852;20.632;2023-05-07T01:11:11;4.00;2.00;0.00
21358;PMS7003;13506;50.852;20.632;2023-05-07T01:13:39;5.00;2.00;0.00
21358;PMS7003;13506;50.852;20.632;2023-05-07T01:16:08;4.00;3.60;1.00
21358;PMS7003;13506;50.852;20.632;2023-05-07T01:18:37;2.00;2.00;0.00
21358;PMS7003;13506;50.852;20.632;2023-05-07T01:21:05;2.00;2.00;0.00
21358;PMS7003;13506;50.852;20.632;2023-05-07T01:23:39;2.40;2.00;0.00
21358;PMS7003;13506;50.852;20.632;2023-05-07T01:26:08;2.00;2.00;0.00
21358;PMS7003;13506;50.852;20.632;2023-05-07T01:28:36;4.80;2.00;0.00
21358;PMS7003;13506;50.852;20.632;2023-05-07T01:31:04;3.60;2.00;0.00
21358;PMS7003;13506;50.852;20.632;2023-05-07T01:33:34;2.00;2.00;0.00
21358;PMS7003;13506;50.852;20.632;2023-05-07T01:36:05;2.00;2.00;0.00
21358;PMS7003;13506;50.852;20.632;2023-05-07T01:38:36;2.00;2.00;0.00
21358;PMS7003;13506;50.852;20.632;2023-05-07T01:41:07;2.00;2.00;0.00
21358;PMS7003;13506;50.852;20.632;2023-05-07T01:43:35;1.00;1.00;0.00
21358;PMS7003;13506;50.852;20.632;2023-05-07T01:46:04;1.80;1.80;0.00
21358;PMS7003;13506;50.852;20.632;2023-05-07T01:48:33;1.00;1.00;0.00
21358;PMS7003;13506;50.852;20.632;2023-05-07T01:51:01;1.40;1.40;0.00
21358;PMS7003;13506;50.852;20.632;2023-05-07T01:53:35;2.00;2.00;0.00
21358;PMS7003;13506;50.852;20.632;2023-05-07T01:56:03;2.00;2.00;0.00
21358;PMS7003;13506;50.852;20.632;2023-05-07T01:58:34;2.00;1.40;0.00
21358;PMS7003;13506;50.852;20.632;2023-05-07T02:01:02;4.00;4.00;0.60
21358;PMS7003;13506;50.852;20.632;2023-05-07T02:03:31;1.60;1.60;0.00
21358;PMS7003;13506;50.852;20.632;2023-05-07T02:06:07;1.00;1.00;0.00
21358;PMS7003;13506;50.852;20.632;2023-05-07T02:08:39;1.75;1.75;0.00
21358;PMS7003;13506;50.852;20.632;2023-05-07T02:11:08;3.60;2.00;0.00
21358;PMS7003;13506;50.852;20.632;2023-05-07T02:13:37;2.00;2.00;0.00
21358;PMS7003;13506;50.852;20.632;2023-05-07T02:16:05;1.00;1.00;0.00
21358;PMS7003;13506;50.852;20.632;2023-05-07T02:18:34;2.00;2.00;0.00
21358;PMS7003;13506;50.852;20.632;2023-05-07T02:21:02;2.00;2.00;0.00
21358;PMS7003;13506;50.852;20.632;2023-05-07T02:23:30;1.40;1.40;0.00
21358;PMS7003;13506;50.852;20.632;2023-05-07T02:25:58;2.00;1.40;0.00
21358;PMS7003;13506;50.852;20.632;2023-05-07T02:28:26;2.00;2.00;0.60
21358;PMS7003;13506;50.852;20.632;2023-05-07T02:31:04;4.60;4.00;1.00
21358;PMS7003;13506;50.852;20.632;2023-05-07T02:33:33;2.00;2.00;0.00
21358;PMS7003;13506;50.852;20.632;2023-05-07T02:36:05;4.00;2.00;0.40
21358;PMS7003;13506;50.852;20.632;2023-05-07T02:38:35;1.00;1.00;0.00
21358;PMS7003;13506;50.852;20.632;2023-05-07T02:41:04;2.80;2.80;0.00
21358;PMS7003;13506;50.852;20.632;2023-05-07T02:43:32;2.20;2.20;0.60
21358;PMS7003;13506;50.852;20.632;2023-05-07T02:46:00;3.40;2.00;0.00
21358;PMS7003;13506;50.852;20.632;2023-05-07T02:48:33;1.00;1.00;0.00
21358;PMS7003;13506;50.852;20.632;2023-05-07T02:51:01;1.40;1.40;0.00
21358;PMS7003;13506;50.852;20.632;2023-05-07T02:53:32;3.80;3.80;1.00
21358;PMS7003;13506;50.852;20.632;2023-05-07T02:56:00;4.00;3.20;1.00
21358;PMS7003;13506;50.852;20.632;2023-05-07T02:58:28;4.20;4.20;1.00
21358;PMS7003;13506;50.852;20.632;2023-05-07T03:00:57;4.00;2.40;0.20
21358;PMS7003;13506;50.852;20.632;2023-05-07T03:03:38;2.00;2.00;0.60
21358;PMS7003;13506;50.852;20.632;2023-05-07T03:06:06;2.80;2.80;0.00
21358;PMS7003;13506;50.852;20.632;2023-05-07T03:08:35;2.00;2.00;0.00
21358;PMS7003;13506;50.852;20.632;2023-05-07T03:11:03;1.00;1.00;0.00
21358;PMS7003;13506;50.852;20.632;2023-05-07T03:13:31;3.60;2.00;0.00
21358;PMS7003;13506;50.852;20.632;2023-05-07T03:15:59;3.20;3.20;0.00
21358;PMS7003;13506;50.852;20.632;2023-05-07T03:18:27;2.00;2.00;0.00
21358;PMS7003;13506;50.852;20.632;2023-05-07T03:20:57;2.00;2.00;1.00
21358;PMS7003;13506;50.852;20.632;2023-05-07T03:23:25;1.80;1.80;0.00
21358;PMS7003;13506;50.852;20.632;2023-05-07T03:25:53;2.80;2.80;0.80
21358;PMS7003;13506;50.852;20.632;2023-05-07T03:28:21;3.00;3.00;0.00
21358;PMS7003;13506;50.852;20.632;2023-05-07T03:30:54;2.00;2.00;0.40
21358;PMS7003;13506;50.852;20.632;2023-05-07T03:33:22;1.20;1.20;0.00
21358;PMS7003;13506;50.852;20.632;2023-05-07T03:35:50;3.20;3.20;0.00
21358;PMS7003;13506;50.852;20.632;2023-05-07T03:38:24;4.00;3.00;0.80
21358;PMS7003;13506;50.852;20.632;2023-05-07T03:40:53;6.00;6.00;0.00
21358;PMS7003;13506;50.852;20.632;2023-05-07T03:43:21;2.00;2.00;0.00
21358;PMS7003;13506;50.852;20.632;2023-05-07T03:45:57;4.20;3.00;0.40
21358;PMS7003;13506;50.852;20.632;2023-05-07T03:48:27;2.00;2.00;0.00
21358;PMS7003;13506;50.852;20.632;2023-05-07T03:50:57;2.80;2.80;0.00
21358;PMS7003;13506;50.852;20.632;2023-05-07T03:53:31;2.80;2.80;0.80
21358;PMS7003;13506;50.852;20.632;2023-05-07T03:55:59;2.00;2.00;0.80
21358;PMS7003;13506;50.852;20.632;2023-05-07T03:58:31;2.00;2.00;0.00
21358;PMS7003;13506;50.852;20.632;2023-05-07T04:01:05;5.20;5.20;2.20
21358;PMS7003;13506;50.852;20.632;2023-05-07T04:03:34;2.00;2.00;0.60
21358;PMS7003;13506;50.852;20.632;2023-05-07T04:06:03;6.20;6.20;1.00
21358;PMS7003;13506;50.852;20.632;2023-05-07T04:08:35;3.80;3.80;1.00
21358;PMS7003;13506;50.852;20.632;2023-05-07T04:11:05;2.00;2.00;0.00
21358;PMS7003;13506;50.852;20.632;2023-05-07T04:13:35;2.60;2.60;1.00
21358;PMS7003;13506;50.852;20.632;2023-05-07T04:16:05;1.00;1.00;0.00
21358;PMS7003;13506;50.852;20.632;2023-05-07T04:18:35;1.00;1.00;0.00
21358;PMS7003;13506;50.852;20.632;2023-05-07T04:21:04;3.00;3.00;1.00
21358;PMS7003;13506;50.852;20.632;2023-05-07T04:23:37;2.40;2.40;0.00
21358;PMS7003;13506;50.852;20.632;2023-05-07T04:26:10;1.80;1.80;0.00
21358;PMS7003;13506;50.852;20.632;2023-05-07T04:28:42;2.00;2.00;0.00
21358;PMS7003;13506;50.852;20.632;2023-05-07T04:31:10;2.00;2.00;0.00
21358;PMS7003;13506;50.852;20.632;2023-05-07T04:33:40;3.20;2.00;0.00
21358;PMS7003;13506;50.852;20.632;2023-05-07T04:36:11;2.00;1.80;0.00
21358;PMS7003;13506;50.852;20.632;2023-05-07T04:38:56;2.80;2.80;0.20
21358;PMS7003;13506;50.852;20.632;2023-05-07T04:41:24;3.20;3.20;0.80
21358;PMS7003;13506;50.852;20.632;2023-05-07T04:43:53;2.00;2.00;0.80
21358;PMS7003;13506;50.852;20.632;2023-05-07T04:46:23;2.20;2.20;0.00
21358;PMS7003;13506;50.852;20.632;2023-05-07T04:48:53;2.00;2.00;0.40
21358;PMS7003;13506;50.852;20.632;2023-05-07T04:51:21;4.00;4.00;1.00
21358;PMS7003;13506;50.852;20.632;2023-05-07T04:53:49;4.40;4.40;1.00
21358;PMS7003;13506;50.852;20.632;2023-05-07T04:56:18;2.00;2.00;0.00
21358;PMS7003;13506;50.852;20.632;2023-05-07T04:58:47;1.00;1.00;0.00
21358;PMS7003;13506;50.852;20.632;2023-05-07T05:01:18;4.00;2.40;0.60
21358;PMS7003;13506;50.852;20.632;2023-05-07T05:03:47;2.00;2.00;0.00
21358;PMS7003;13506;50.852;20.632;2023-05-07T05:06:15;2.00;2.00;0.00
21358;PMS7003;13506;50.852;20.632;2023-05-07T05:08:44;2.00;2.00;0.00
21358;PMS7003;13506;50.852;20.632;2023-05-07T05:11:12;2.00;2.00;0.20
21358;PMS7003;13506;50.852;20.632;2023-05-07T05:13:42;3.20;3.20;0.00
21358;PMS7003;13506;50.852;20.632;2023-05-07T05:16:16;3.60;2.80;0.80
21358;PMS7003;13506;50.852;20.632;2023-05-07T05:18:44;2.80;2.80;0.40
21358;PMS7003;13506;50.852;20.632;2023-05-07T05:21:15;2.00;2.00;0.00
21358;PMS7003;13506;50.852;20.632;2023-05-07T05:23:46;3.80;3.80;1.00
21358;PMS7003;13506;50.852;20.632;2023-05-07T05:26:18;5.80;3.40;1.00
21358;PMS7003;13506;50.852;20.632;2023-05-07T05:28:49;4.80;2.00;0.00
21358;PMS7003;13506;50.852;20.632;2023-05-07T05:31:20;1.80;1.80;0.00
21358;PMS7003;13506;50.852;20.632;2023-05-07T05:33:49;1.20;1.20;0.00
21358;PMS7003;13506;50.852;20.632;2023-05-07T05:36:17;4.00;4.00;1.00
21358;PMS7003;13506;50.852;20.632;2023-05-07T05:38:47;2.00;2.00;0.60
21358;PMS7003;13506;50.852;20.632;2023-05-07T05:41:16;2.00;2.00;0.60
21358;PMS7003;13506;50.852;20.632;2023-05-07T05:43:44;3.00;3.00;0.40
21358;PMS7003;13506;50.852;20.632;2023-05-07T05:46:13;2.60;2.60;1.00
21358;PMS7003;13506;50.852;20.632;2023-05-07T05:48:41;3.20;3.20;0.40
21358;PMS7003;13506;50.852;20.632;2023-05-07T05:51:11;1.00;1.00;0.00
21358;PMS7003;13506;50.852;20.632;2023-05-07T05:53:39;4.40;4.40;1.00
21358;PMS7003;13506;50.852;20.632;2023-05-07T05:56:08;2.00;2.00;0.00
21358;PMS7003;13506;50.852;20.632;2023-05-07T05:58:39;4.80;4.00;0.20
21358;PMS7003;13506;50.852;20.632;2023-05-07T06:01:08;7.00;4.00;1.00
21358;PMS7003;13506;50.852;20.632;2023-05-07T06:03:38;4.00;4.00;1.00
21358;PMS7003;13506;50.852;20.632;2023-05-07T06:06:12;3.00;2.00;0.00
21358;PMS7003;13506;50.852;20.632;2023-05-07T06:08:42;3.40;2.00;0.00
21358;PMS7003;13506;50.852;20.632;2023-05-07T06:11:12;5.00;2.00;0.00
21358;PMS7003;13506;50.852;20.632;2023-05-07T06:13:43;4.00;4.00;1.00
21358;PMS7003;13506;50.852;20.632;2023-05-07T06:16:11;4.40;4.40;1.00
21358;PMS7003;13506;50.852;20.632;2023-05-07T06:18:42;6.20;5.00;1.00
21358;PMS7003;13506;50.852;20.632;2023-05-07T06:21:13;2.20;2.20;0.00
21358;PMS7003;13506;50.852;20.632;2023-05-07T06:23:41;4.00;4.00;1.00
21358;PMS7003;13506;50.852;20.632;2023-05-07T06:26:10;3.60;3.60;1.00
21358;PMS7003;13506;50.852;20.632;2023-05-07T06:28:41;2.80;2.80;0.60
21358;PMS7003;13506;50.852;20.632;2023-05-07T06:31:12;4.00;4.00;0.80
21358;PMS7003;13506;50.852;20.632;2023-05-07T06:33:46;4.00;4.00;0.00
21358;PMS7003;13506;50.852;20.632;2023-05-07T06:36:15;3.60;2.80;0.00
21358;PMS7003;13506;50.852;20.632;2023-05-07T06:38:44;3.60;3.60;0.00
21358;PMS7003;13506;50.852;20.632;2023-05-07T06:41:12;4.80;4.00;1.00
21358;PMS7003;13506;50.852;20.632;2023-05-07T06:43:41;4.00;4.00;1.00
21358;PMS7003;13506;50.852;20.632;2023-05-07T06:46:25;4.00;2.00;0.00
21358;PMS7003;13506;50.852;20.632;2023-05-07T06:48:55;3.60;3.60;0.00
21358;PMS7003;13506;50.852;20.632;2023-05-07T06:51:24;6.40;4.40;1.00
21358;PMS7003;13506;50.852;20.632;2023-05-07T06:53:53;3.20;3.20;0.60
21358;PMS7003;13506;50.852;20.632;2023-05-07T06:56:21;2.00;2.00;0.40
21358;PMS7003;13506;50.852;20.632;2023-05-07T06:58:50;4.60;2.60;0.00
21358;PMS7003;13506;50.852;20.632;2023-05-07T07:01:18;3.40;2.00;0.80
21358;PMS7003;13506;50.852;20.632;2023-05-07T07:03:46;2.00;2.00;0.00
21358;PMS7003;13506;50.852;20.632;2023-05-07T07:06:16;2.00;2.00;0.00
21358;PMS7003;13506;50.852;20.632;2023-05-07T07:08:46;4.80;3.00;1.00
21358;PMS7003;13506;50.852;20.632;2023-05-07T07:11:16;4.00;4.00;0.80
21358;PMS7003;13506;50.852;20.632;2023-05-07T07:13:44;1.40;1.00;0.00
21358;PMS7003;13506;50.852;20.632;2023-05-07T07:16:12;4.40;2.00;0.00
21358;PMS7003;13506;50.852;20.632;2023-05-07T07:18:41;4.00;2.00;0.00
21358;PMS7003;13506;50.852;20.632;2023-05-07T07:21:09;4.00;4.00;0.00
21358;PMS7003;13506;50.852;20.632;2023-05-07T07:23:39;2.00;2.00;0.00
21358;PMS7003;13506;50.852;20.632;2023-05-07T07:26:07;2.00;2.00;0.00
21358;PMS7003;13506;50.852;20.632;2023-05-07T07:28:41;2.00;2.00;0.60
21358;PMS7003;13506;50.852;20.632;2023-05-07T07:31:10;3.20;3.20;0.40
21358;PMS7003;13506;50.852;20.632;2023-05-07T07:33:38;5.00;2.00;1.00
21358;PMS7003;13506;50.852;20.632;2023-05-07T07:36:07;3.20;3.20;0.00
21358;PMS7003;13506;50.852;20.632;2023-05-07T07:38:36;2.40;2.40;1.00
21358;PMS7003;13506;50.852;20.632;2023-05-07T07:41:07;4.00;4.00;0.00
21358;PMS7003;13506;50.852;20.632;2023-05-07T07:43:36;1.80;1.80;0.00
21358;PMS7003;13506;50.852;20.632;2023-05-07T07:46:04;4.00;4.00;0.80
21358;PMS7003;13506;50.852;20.632;2023-05-07T07:48:33;4.20;3.20;0.80
21358;PMS7003;13506;50.852;20.632;2023-05-07T07:51:00;3.20;1.60;0.00
21358;PMS7003;13506;50.852;20.632;2023-05-07T07:53:29;2.00;2.00;0.00
21358;PMS7003;13506;50.852;20.632;2023-05-07T07:55:57;4.80;4.00;1.00
21358;PMS7003;13506;50.852;20.632;2023-05-07T07:58:29;2.00;2.00;0.20
21358;PMS7003;13506;50.852;20.632;2023-05-07T08:00:57;2.00;2.00;0.40
21358;PMS7003;13506;50.852;20.632;2023-05-07T08:03:26;4.00;4.00;1.00
21358;PMS7003;13506;50.852;20.632;2023-05-07T08:05:57;2.00;2.00;0.00
21358;PMS7003;13506;50.852;20.632;2023-05-07T08:08:26;1.80;1.80;0.00
21358;PMS7003;13506;50.852;20.632;2023-05-07T08:10:54;2.00;2.00;0.60
21358;PMS7003;13506;50.852;20.632;2023-05-07T08:13:29;2.00;2.00;0.20
21358;PMS7003;13506;50.852;20.632;2023-05-07T08:15:59;3.60;2.80;0.00
21358;PMS7003;13506;50.852;20.632;2023-05-07T08:18:27;5.40;4.00;1.20
21358;PMS7003;13506;50.852;20.632;2023-05-07T08:20:57;3.20;2.00;0.00
21358;PMS7003;13506;50.852;20.632;2023-05-07T08:23:26;3.20;3.20;0.00
21358;PMS7003;13506;50.852;20.632;2023-05-07T08:25:55;3.20;3.20;0.00
21358;PMS7003;13506;50.852;20.632;2023-05-07T08:28:24;3.60;3.60;0.00
21358;PMS7003;13506;50.852;20.632;2023-05-07T08:30:54;3.00;2.00;0.60
21358;PMS7003;13506;50.852;20.632;2023-05-07T08:33:26;3.60;2.80;0.60
21358;PMS7003;13506;50.852;20.632;2023-05-07T08:35:54;3.20;3.20;1.00
21358;PMS7003;13506;50.852;20.632;2023-05-07T08:38:22;4.80;3.60;0.60
21358;PMS7003;13506;50.852;20.632;2023-05-07T08:40:50;4.40;4.00;1.00
21358;PMS7003;13506;50.852;20.632;2023-05-07T08:43:20;4.00;4.00;1.00
21358;PMS7003;13506;50.852;20.632;2023-05-07T08:45:54;5.00;5.00;1.00
21358;PMS7003;13506;50.852;20.632;2023-05-07T08:48:29;4.00;4.00;0.80
21358;PMS7003;13506;50.852;20.632;2023-05-07T08:51:05;6.80;5.40;2.00
21358;PMS7003;13506;50.852;20.632;2023-05-07T08:53:34;4.20;4.00;0.80
21358;PMS7003;13506;50.852;20.632;2023-05-07T08:56:03;5.00;4.20;1.00
21358;PMS7003;13506;50.852;20.632;2023-05-07T08:58:34;6.60;6.20;1.80
21358;PMS7003;13506;50.852;20.632;2023-05-07T09:01:06;4.00;4.00;1.00
21358;PMS7003;13506;50.852;20.632;2023-05-07T09:03:37;4.80;4.80;1.00
21358;PMS7003;13506;50.852;20.632;2023-05-07T09:06:05;6.60;4.00;0.80
21358;PMS7003;13506;50.852;20.632;2023-05-07T09:08:34;4.00;4.00;1.60
21358;PMS7003;13506;50.852;20.632;2023-05-07T09:11:04;5.40;2.00;1.00
21358;PMS7003;13506;50.852;20.632;2023-05-07T09:13:33;4.80;4.80;1.00
21358;PMS7003;13506;50.852;20.632;2023-05-07T09:16:13;4.20;4.20;1.00
21358;PMS7003;13506;50.852;20.632;2023-05-07T09:18:44;2.80;2.80;1.00
21358;PMS7003;13506;50.852;20.632;2023-05-07T09:21:14;4.00;4.00;1.00
21358;PMS7003;13506;50.852;20.632;2023-05-07T09:23:45;4.00;4.00;1.00
21358;PMS7003;13506;50.852;20.632;2023-05-07T09:26:15;4.00;4.00;1.00
21358;PMS7003;13506;50.852;20.632;2023-05-07T09:28:44;4.80;4.80;1.00
21358;PMS7003;13506;50.852;20.632;2023-05-07T09:31:14;7.40;5.60;1.40
21358;PMS7003;13506;50.852;20.632;2023-05-07T09:33:43;4.40;4.40;1.20
21358;PMS7003;13506;50.852;20.632;2023-05-07T09:36:12;4.00;4.00;1.00
21358;PMS7003;13506;50.852;20.632;2023-05-07T09:38:41;4.20;4.00;1.00
21358;PMS7003;13506;50.852;20.632;2023-05-07T09:41:09;5.00;4.40;1.00
21358;PMS7003;13506;50.852;20.632;2023-05-07T09:43:47;6.60;5.00;1.00
21358;PMS7003;13506;50.852;20.632;2023-05-07T09:46:27;2.00;2.00;1.00
21358;PMS7003;13506;50.852;20.632;2023-05-07T09:49:01;13.20;11.80;7.20
21358;PMS7003;13506;50.852;20.632;2023-05-07T09:51:37;27.20;21.60;10.60
21358;PMS7003;13506;50.852;20.632;2023-05-07T09:54:10;10.00;8.00;4.00
21358;PMS7003;13506;50.852;20.632;2023-05-07T09:56:41;5.20;4.40;2.00
21358;PMS7003;13506;50.852;20.632;2023-05-07T09:59:12;4.80;4.80;1.60
21358;PMS7003;13506;50.852;20.632;2023-05-07T10:01:43;5.00;3.60;1.00
21358;PMS7003;13506;50.852;20.632;2023-05-07T10:04:12;3.60;3.60;1.00
21358;PMS7003;13506;50.852;20.632;2023-05-07T10:06:43;5.00;5.00;1.00
21358;PMS7003;13506;50.852;20.632;2023-05-07T10:09:13;4.40;4.40;1.40
21358;PMS7003;13506;50.852;20.632;2023-05-07T10:11:41;5.40;5.40;1.80
21358;PMS7003;13506;50.852;20.632;2023-05-07T10:14:10;5.20;4.60;1.20
21358;PMS7003;13506;50.852;20.632;2023-05-07T10:16:40;7.00;5.00;2.00
21358;PMS7003;13506;50.852;20.632;2023-05-07T10:19:15;7.40;7.00;1.00
21358;PMS7003;13506;50.852;20.632;2023-05-07T10:21:48;4.00;4.00;1.00
21358;PMS7003;13506;50.852;20.632;2023-05-07T10:24:25;5.80;5.80;4.00
21358;PMS7003;13506;50.852;20.632;2023-05-07T10:26:56;4.20;4.20;1.00
21358;PMS7003;13506;50.852;20.632;2023-05-07T10:29:32;5.00;5.00;1.60
21358;PMS7003;13506;50.852;20.632;2023-05-07T10:32:14;5.40;4.00;1.20
21358;PMS7003;13506;50.852;20.632;2023-05-07T10:34:57;7.60;7.60;2.00
21358;PMS7003;13506;50.852;20.632;2023-05-07T10:37:29;4.80;4.80;1.00
21358;PMS7003;13506;50.852;20.632;2023-05-07T10:39:58;5.00;5.00;2.00
21358;PMS7003;13506;50.852;20.632;2023-05-07T10:42:29;4.00;4.00;1.00
21358;PMS7003;13506;50.852;20.632;2023-05-07T10:44:58;4.00;3.60;1.00
21358;PMS7003;13506;50.852;20.632;2023-05-07T10:50:34;5.80;4.60;1.20
21358;PMS7003;13506;50.852;20.632;2023-05-07T11:02:04;5.00;4.40;1.00
21358;PMS7003;13506;50.852;20.632;2023-05-07T11:07:53;5.00;4.20;1.20
21358;PMS7003;13506;50.852;20.632;2023-05-07T11:10:37;7.00;7.00;2.80
21358;PMS7003;13506;50.852;20.632;2023-05-07T11:13:43;7.40;7.00;2.00
21358;PMS7003;13506;50.852;20.632;2023-05-07T11:16:23;8.20;6.20;2.80
21358;PMS7003;13506;50.852;20.632;2023-05-07T11:19:04;9.20;8.00;4.00
21358;PMS7003;13506;50.852;20.632;2023-05-07T11:21:40;9.00;7.00;3.20
21358;PMS7003;13506;50.852;20.632;2023-05-07T11:24:33;10.00;9.20;4.80
21358;PMS7003;13506;50.852;20.632;2023-05-07T11:27:06;10.80;10.80;6.20
21358;PMS7003;13506;50.852;20.632;2023-05-07T11:29:35;9.20;9.20;4.20
21358;PMS7003;13506;50.852;20.632;2023-05-07T11:32:12;11.00;11.00;6.20
21358;PMS7003;13506;50.852;20.632;2023-05-07T11:34:46;10.20;10.20;4.00
21358;PMS7003;13506;50.852;20.632;2023-05-07T11:37:20;15.40;11.60;5.80
21358;PMS7003;13506;50.852;20.632;2023-05-07T11:40:01;11.00;11.00;7.00
21358;PMS7003;13506;50.852;20.632;2023-05-07T11:42:31;13.80;8.00;4.00
21358;PMS7003;13506;50.852;20.632;2023-05-07T11:45:01;9.20;8.80;5.00
21358;PMS7003;13506;50.852;20.632;2023-05-07T11:47:30;12.80;11.00;5.40
21358;PMS7003;13506;50.852;20.632;2023-05-07T11:50:02;11.00;11.00;5.00
21358;PMS7003;13506;50.852;20.632;2023-05-07T11:52:32;6.20;5.00;2.00
21358;PMS7003;13506;50.852;20.632;2023-05-07T11:55:01;11.60;11.60;6.20
21358;PMS7003;13506;50.852;20.632;2023-05-07T11:57:30;10.40;10.40;5.80
21358;PMS7003;13506;50.852;20.632;2023-05-07T12:00:01;11.00;8.00;4.00
21358;PMS7003;13506;50.852;20.632;2023-05-07T12:02:38;9.80;8.40;4.00
21358;PMS7003;13506;50.852;20.632;2023-05-07T12:05:07;12.00;10.80;4.00
21358;PMS7003;13506;50.852;20.632;2023-05-07T12:07:37;7.80;7.00;3.20
21358;PMS7003;13506;50.852;20.632;2023-05-07T12:10:06;13.00;9.60;4.80
21358;PMS7003;13506;50.852;20.632;2023-05-07T12:12:38;9.80;8.60;3.60
21358;PMS7003;13506;50.852;20.632;2023-05-07T12:15:08;12.40;11.60;5.80
21358;PMS7003;13506;50.852;20.632;2023-05-07T12:17:36;12.40;10.20;5.00
21358;PMS7003;13506;50.852;20.632;2023-05-07T12:20:05;10.00;10.00;4.20
21358;PMS7003;13506;50.852;20.632;2023-05-07T12:22:35;11.20;11.20;4.00
21358;PMS7003;13506;50.852;20.632;2023-05-07T12:25:05;10.80;10.00;4.00
21358;PMS7003;13506;50.852;20.632;2023-05-07T12:27:36;9.60;8.40;4.00
21358;PMS7003;13506;50.852;20.632;2023-05-07T12:30:06;7.20;5.80;2.00
21358;PMS7003;13506;50.852;20.632;2023-05-07T12:32:38;14.00;11.40;5.00
21358;PMS7003;13506;50.852;20.632;2023-05-07T12:35:06;20.20;18.60;10.80
21358;PMS7003;13506;50.852;20.632;2023-05-07T12:37:35;49.50;35.50;20.50
21358;PMS7003;13506;50.852;20.632;2023-05-07T12:40:05;14.00;11.60;5.40
21358;PMS7003;13506;50.852;20.632;2023-05-07T12:42:35;15.80;9.60;5.00
21358;PMS7003;13506;50.852;20.632;2023-05-07T12:45:09;10.00;10.00;4.60
21358;PMS7003;13506;50.852;20.632;2023-05-07T12:47:38;14.80;9.80;4.00
21358;PMS7003;13506;50.852;20.632;2023-05-07T12:50:10;10.20;10.20;5.00
21358;PMS7003;13506;50.852;20.632;2023-05-07T12:52:41;15.60;11.80;4.00
21358;PMS7003;13506;50.852;20.632;2023-05-07T12:55:12;9.60;7.60;3.60
21358;PMS7003;13506;50.852;20.632;2023-05-07T12:57:43;11.40;10.80;7.00
21358;PMS7003;13506;50.852;20.632;2023-05-07T13:00:14;8.00;7.60;2.00
21358;PMS7003;13506;50.852;20.632;2023-05-07T13:02:43;10.20;9.60;4.80
21358;PMS7003;13506;50.852;20.632;2023-05-07T13:05:12;12.80;10.60;5.00
21358;PMS7003;13506;50.852;20.632;2023-05-07T13:07:41;13.00;10.00;5.80
21358;PMS7003;13506;50.852;20.632;2023-05-07T13:10:21;19.20;14.40;7.60
21358;PMS7003;13506;50.852;20.632;2023-05-07T13:12:49;16.20;16.20;10.00
21358;PMS7003;13506;50.852;20.632;2023-05-07T13:15:18;18.40;17.60;10.80
21358;PMS7003;13506;50.852;20.632;2023-05-07T13:17:46;17.80;16.20;8.00
21358;PMS7003;13506;50.852;20.632;2023-05-07T13:20:14;14.40;12.80;6.80
21358;PMS7003;13506;50.852;20.632;2023-05-07T13:22:44;16.00;13.00;7.20
21358;PMS7003;13506;50.852;20.632;2023-05-07T13:25:12;11.40;10.00;5.40
21358;PMS7003;13506;50.852;20.632;2023-05-07T13:27:40;8.60;8.00;3.20
21358;PMS7003;13506;50.852;20.632;2023-05-07T13:30:09;9.20;7.80;3.20
21358;PMS7003;13506;50.852;20.632;2023-05-07T13:32:37;11.20;8.00;4.00
21358;PMS7003;13506;50.852;20.632;2023-05-07T13:35:05;10.20;8.00;4.00
21358;PMS7003;13506;50.852;20.632;2023-05-07T13:37:34;7.40;7.00;4.00
21358;PMS7003;13506;50.852;20.632;2023-05-07T13:40:04;7.20;7.20;2.00
21358;PMS7003;13506;50.852;20.632;2023-05-07T13:42:33;8.00;7.00;2.00
21358;PMS7003;13506;50.852;20.632;2023-05-07T13:45:01;10.20;8.40;4.20
21358;PMS7003;13506;50.852;20.632;2023-05-07T13:47:30;7.80;7.00;3.60
21358;PMS7003;13506;50.852;20.632;2023-05-07T13:49:58;7.20;7.20;4.00
21358;PMS7003;13506;50.852;20.632;2023-05-07T13:52:26;8.00;7.20;3.60
21358;PMS7003;13506;50.852;20.632;2023-05-07T13:54:54;7.60;7.60;3.60
21358;PMS7003;13506;50.852;20.632;2023-05-07T13:57:25;8.80;8.80;4.00
21358;PMS7003;13506;50.852;20.632;2023-05-07T13:59:53;6.60;6.60;2.60
21358;PMS7003;13506;50.852;20.632;2023-05-07T14:02:21;7.60;7.60;4.00
21358;PMS7003;13506;50.852;20.632;2023-05-07T14:04:50;7.20;7.20;2.00
21358;PMS7003;13506;50.852;20.632;2023-05-07T14:07:18;9.60;8.60;4.00
21358;PMS7003;13506;50.852;20.632;2023-05-07T14:09:46;14.40;9.60;3.20
21358;PMS7003;13506;50.852;20.632;2023-05-07T14:12:14;10.60;10.60;4.80
21358;PMS7003;13506;50.852;20.632;2023-05-07T14:14:44;12.00;10.40;6.20
21358;PMS7003;13506;50.852;20.632;2023-05-07T14:17:12;13.20;10.80;4.80
21358;PMS7003;13506;50.852;20.632;2023-05-07T14:19:40;9.20;7.40;3.20
21358;PMS7003;13506;50.852;20.632;2023-05-07T14:22:08;7.40;7.40;4.00
21358;PMS7003;13506;50.852;20.632;2023-05-07T14:24:36;10.00;8.80;4.00
21358;PMS7003;13506;50.852;20.632;2023-05-07T14:27:05;8.60;8.60;3.80
21358;PMS7003;13506;50.852;20.632;2023-05-07T14:29:33;11.20;10.00;4.80
21358;PMS7003;13506;50.852;20.632;2023-05-07T14:32:03;10.20;8.20;3.20
21358;PMS7003;13506;50.852;20.632;2023-05-07T14:34:31;12.00;10.60;4.60
21358;PMS7003;13506;50.852;20.632;2023-05-07T14:36:59;8.40;8.40;3.60
21358;PMS7003;13506;50.852;20.632;2023-05-07T14:39:28;16.60;11.60;8.00